sensor_id;sensor_type;location;lat;lon;timestamp;temperature;humidity
21481;DHT22;10902;48.158;8.634;2023-06-10T00:02:34;12.80;99.90
21481;DHT22;10902;48.158;8.634;2023-06-10T00:05:18;12.70;99.90
21481;DHT22;10902;48.158;8.634;2023-06-10T00:08:06;12.60;99.90
21481;DHT22;10902;48.158;8.634;2023-06-10T00:10:54;12.80;99.90
21481;DHT22;10902;48.158;8.634;2023-06-10T00:13:39;12.70;99.90
21481;DHT22;10902;48.158;8.634;2023-06-10T00:16:24;12.50;99.90
21481;DHT22;10902;48.158;8.634;2023-06-10T00:19:09;12.40;99.90
21481;DHT22;10902;48.158;8.634;2023-06-10T00:21:53;12.40;99.90
21481;DHT22;10902;48.158;8.634;2023-06-10T00:24:37;12.50;99.90
21481;DHT22;10902;48.158;8.634;2023-06-10T00:27:22;12.60;99.90
21481;DHT22;10902;48.158;8.634;2023-06-10T00:30:07;12.60;99.90
21481;DHT22;10902;48.158;8.634;2023-06-10T00:32:51;12.50;99.90
21481;DHT22;10902;48.158;8.634;2023-06-10T00:35:35;12.40;99.90
21481;DHT22;10902;48.158;8.634;2023-06-10T00:38:19;12.40;99.90
21481;DHT22;10902;48.158;8.634;2023-06-10T00:41:04;12.50;99.90
21481;DHT22;10902;48.158;8.634;2023-06-10T00:43:49;12.50;99.90
21481;DHT22;10902;48.158;8.634;2023-06-10T00:46:34;12.30;99.90
21481;DHT22;10902;48.158;8.634;2023-06-10T00:49:18;12.60;99.90
21481;DHT22;10902;48.158;8.634;2023-06-10T00:52:04;12.40;99.90
21481;DHT22;10902;48.158;8.634;2023-06-10T00:54:50;12.20;99.90
21481;DHT22;10902;48.158;8.634;2023-06-10T00:57:34;12.00;99.90
21481;DHT22;10902;48.158;8.634;2023-06-10T01:00:18;11.80;99.90
21481;DHT22;10902;48.158;8.634;2023-06-10T01:03:03;12.00;99.90
21481;DHT22;10902;48.158;8.634;2023-06-10T01:05:59;12.00;99.90
21481;DHT22;10902;48.158;8.634;2023-06-10T01:12:11;11.80;99.90
21481;DHT22;10902;48.158;8.634;2023-06-10T01:14:59;12.10;99.90
21481;DHT22;10902;48.158;8.634;2023-06-10T01:20:42;12.00;99.90
21481;DHT22;10902;48.158;8.634;2023-06-10T01:23:28;12.10;99.90
21481;DHT22;10902;48.158;8.634;2023-06-10T01:26:12;12.10;99.90
21481;DHT22;10902;48.158;8.634;2023-06-10T01:29:18;12.10;99.90
21481;DHT22;10902;48.158;8.634;2023-06-10T01:32:14;12.00;99.90
21481;DHT22;10902;48.158;8.634;2023-06-10T01:35:00;11.70;99.90
21481;DHT22;10902;48.158;8.634;2023-06-10T01:37:46;11.70;99.90
21481;DHT22;10902;48.158;8.634;2023-06-10T01:40:31;11.50;99.90
21481;DHT22;10902;48.158;8.634;2023-06-10T01:43:16;11.50;99.90
21481;DHT22;10902;48.158;8.634;2023-06-10T01:46:00;11.50;99.90
21481;DHT22;10902;48.158;8.634;2023-06-10T01:48:44;11.60;99.90
21481;DHT22;10902;48.158;8.634;2023-06-10T01:51:28;11.60;99.90
21481;DHT22;10902;48.158;8.634;2023-06-10T01:54:14;11.50;99.90
21481;DHT22;10902;48.158;8.634;2023-06-10T01:56:58;11.30;99.90
21481;DHT22;10902;48.158;8.634;2023-06-10T01:59:42;11.30;99.90
21481;DHT22;10902;48.158;8.634;2023-06-10T02:02:28;11.10;99.90
21481;DHT22;10902;48.158;8.634;2023-06-10T02:05:12;11.00;99.90
21481;DHT22;10902;48.158;8.634;2023-06-10T02:07:56;11.00;99.90
21481;DHT22;10902;48.158;8.634;2023-06-10T02:10:40;10.90;99.90
21481;DHT22;10902;48.158;8.634;2023-06-10T02:13:24;10.80;99.90
21481;DHT22;10902;48.158;8.634;2023-06-10T02:16:08;10.90;99.90
21481;DHT22;10902;48.158;8.634;2023-06-10T02:18:57;10.90;99.90
21481;DHT22;10902;48.158;8.634;2023-06-10T02:21:41;10.80;99.90
21481;DHT22;10902;48.158;8.634;2023-06-10T02:24:25;10.70;99.90
21481;DHT22;10902;48.158;8.634;2023-06-10T02:27:09;10.50;99.90
21481;DHT22;10902;48.158;8.634;2023-06-10T02:29:53;10.40;99.90
21481;DHT22;10902;48.158;8.634;2023-06-10T02:32:37;10.50;99.90
21481;DHT22;10902;48.158;8.634;2023-06-10T02:35:21;10.90;99.90
21481;DHT22;10902;48.158;8.634;2023-06-10T02:38:07;11.00;99.90
21481;DHT22;10902;48.158;8.634;2023-06-10T02:40:51;11.00;99.90
21481;DHT22;10902;48.158;8.634;2023-06-10T02:43:36;11.20;99.90
21481;DHT22;10902;48.158;8.634;2023-06-10T02:46:20;11.40;99.90
21481;DHT22;10902;48.158;8.634;2023-06-10T02:49:04;11.80;99.90
21481;DHT22;10902;48.158;8.634;2023-06-10T02:51:49;11.80;99.90
21481;DHT22;10902;48.158;8.634;2023-06-10T02:54:37;11.60;99.90
21481;DHT22;10902;48.158;8.634;2023-06-10T02:57:21;11.50;99.90
21481;DHT22;10902;48.158;8.634;2023-06-10T03:00:06;11.50;99.90
21481;DHT22;10902;48.158;8.634;2023-06-10T03:02:54;11.80;99.90
21481;DHT22;10902;48.158;8.634;2023-06-10T03:05:41;12.10;99.90
21481;DHT22;10902;48.158;8.634;2023-06-10T03:08:25;11.80;99.90
21481;DHT22;10902;48.158;8.634;2023-06-10T03:11:10;11.40;99.90
21481;DHT22;10902;48.158;8.634;2023-06-10T03:13:54;11.10;99.90
21481;DHT22;10902;48.158;8.634;2023-06-10T03:16:39;11.00;99.90
21481;DHT22;10902;48.158;8.634;2023-06-10T03:19:26;10.80;99.90
21481;DHT22;10902;48.158;8.634;2023-06-10T03:22:12;10.50;99.90
21481;DHT22;10902;48.158;8.634;2023-06-10T03:24:56;10.20;99.90
21481;DHT22;10902;48.158;8.634;2023-06-10T03:27:42;10.10;99.90
21481;DHT22;10902;48.158;8.634;2023-06-10T03:30:27;10.00;99.90
21481;DHT22;10902;48.158;8.634;2023-06-10T03:33:12;9.90;99.90
21481;DHT22;10902;48.158;8.634;2023-06-10T03:35:56;10.00;99.90
21481;DHT22;10902;48.158;8.634;2023-06-10T03:38:40;10.10;99.90
21481;DHT22;10902;48.158;8.634;2023-06-10T03:41:24;10.30;99.90
21481;DHT22;10902;48.158;8.634;2023-06-10T03:44:09;10.30;99.90
21481;DHT22;10902;48.158;8.634;2023-06-10T03:46:56;10.30;99.90
21481;DHT22;10902;48.158;8.634;2023-06-10T03:49:41;10.30;99.90
21481;DHT22;10902;48.158;8.634;2023-06-10T03:52:26;10.40;99.90
21481;DHT22;10902;48.158;8.634;2023-06-10T03:55:10;10.50;99.90
21481;DHT22;10902;48.158;8.634;2023-06-10T03:57:55;10.50;99.90
21481;DHT22;10902;48.158;8.634;2023-06-10T04:00:39;10.50;99.90
21481;DHT22;10902;48.158;8.634;2023-06-10T04:03:25;10.60;99.90
21481;DHT22;10902;48.158;8.634;2023-06-10T04:06:10;10.60;99.90
21481;DHT22;10902;48.158;8.634;2023-06-10T04:08:54;10.60;99.90
21481;DHT22;10902;48.158;8.634;2023-06-10T04:11:40;10.50;99.90
21481;DHT22;10902;48.158;8.634;2023-06-10T04:14:24;10.50;99.90
21481;DHT22;10902;48.158;8.634;2023-06-10T04:17:08;10.50;99.90
21481;DHT22;10902;48.158;8.634;2023-06-10T04:19:52;10.50;99.90
21481;DHT22;10902;48.158;8.634;2023-06-10T04:22:39;10.50;99.90
21481;DHT22;10902;48.158;8.634;2023-06-10T04:25:23;10.50;99.90
21481;DHT22;10902;48.158;8.634;2023-06-10T04:28:08;10.60;99.90
21481;DHT22;10902;48.158;8.634;2023-06-10T04:30:52;10.70;99.90
21481;DHT22;10902;48.158;8.634;2023-06-10T04:33:36;10.80;99.90
21481;DHT22;10902;48.158;8.634;2023-06-10T04:36:20;10.80;99.90
21481;DHT22;10902;48.158;8.634;2023-06-10T04:39:04;10.90;99.90
21481;DHT22;10902;48.158;8.634;2023-06-10T04:41:49;10.90;99.90
21481;DHT22;10902;48.158;8.634;2023-06-10T04:44:34;10.90;99.90
21481;DHT22;10902;48.158;8.634;2023-06-10T04:47:17;10.90;99.90
21481;DHT22;10902;48.158;8.634;2023-06-10T04:50:02;11.10;99.90
21481;DHT22;10902;48.158;8.634;2023-06-10T04:52:47;11.10;99.90
21481;DHT22;10902;48.158;8.634;2023-06-10T04:55:31;11.20;99.90
21481;DHT22;10902;48.158;8.634;2023-06-10T04:58:17;11.30;99.90
21481;DHT22;10902;48.158;8.634;2023-06-10T05:01:01;11.30;99.90
21481;DHT22;10902;48.158;8.634;2023-06-10T05:03:46;11.50;99.90
21481;DHT22;10902;48.158;8.634;2023-06-10T05:06:30;11.60;99.90
21481;DHT22;10902;48.158;8.634;2023-06-10T05:09:14;11.70;99.90
21481;DHT22;10902;48.158;8.634;2023-06-10T05:11:59;11.80;99.90
21481;DHT22;10902;48.158;8.634;2023-06-10T05:14:43;12.00;99.90
21481;DHT22;10902;48.158;8.634;2023-06-10T05:17:28;12.10;99.90
21481;DHT22;10902;48.158;8.634;2023-06-10T05:20:12;12.20;99.90
21481;DHT22;10902;48.158;8.634;2023-06-10T05:22:57;12.20;99.90
21481;DHT22;10902;48.158;8.634;2023-06-10T05:25:41;12.40;99.90
21481;DHT22;10902;48.158;8.634;2023-06-10T05:28:26;12.60;99.90
21481;DHT22;10902;48.158;8.634;2023-06-10T05:31:10;12.80;99.90
21481;DHT22;10902;48.158;8.634;2023-06-10T05:33:54;13.00;99.90
21481;DHT22;10902;48.158;8.634;2023-06-10T05:36:38;13.30;99.90
21481;DHT22;10902;48.158;8.634;2023-06-10T05:39:23;13.60;99.90
21481;DHT22;10902;48.158;8.634;2023-06-10T05:42:08;13.80;99.90
21481;DHT22;10902;48.158;8.634;2023-06-10T05:44:52;14.10;99.90
21481;DHT22;10902;48.158;8.634;2023-06-10T05:47:36;14.20;99.90
21481;DHT22;10902;48.158;8.634;2023-06-10T05:50:20;14.30;99.90
21481;DHT22;10902;48.158;8.634;2023-06-10T05:53:05;14.40;99.90
21481;DHT22;10902;48.158;8.634;2023-06-10T05:55:51;14.70;99.90
21481;DHT22;10902;48.158;8.634;2023-06-10T05:58:36;14.80;99.90
21481;DHT22;10902;48.158;8.634;2023-06-10T06:01:20;14.90;99.90
21481;DHT22;10902;48.158;8.634;2023-06-10T06:04:04;15.10;99.90
21481;DHT22;10902;48.158;8.634;2023-06-10T06:06:48;15.20;99.90
21481;DHT22;10902;48.158;8.634;2023-06-10T06:09:32;15.30;99.90
21481;DHT22;10902;48.158;8.634;2023-06-10T06:12:17;15.40;99.90
21481;DHT22;10902;48.158;8.634;2023-06-10T06:15:00;15.50;99.90
21481;DHT22;10902;48.158;8.634;2023-06-10T06:17:45;15.70;99.90
21481;DHT22;10902;48.158;8.634;2023-06-10T06:20:29;15.80;99.90
21481;DHT22;10902;48.158;8.634;2023-06-10T06:23:13;16.00;99.90
21481;DHT22;10902;48.158;8.634;2023-06-10T06:25:57;16.10;99.90
21481;DHT22;10902;48.158;8.634;2023-06-10T06:28:41;16.20;99.90
21481;DHT22;10902;48.158;8.634;2023-06-10T06:31:25;16.40;99.90
21481;DHT22;10902;48.158;8.634;2023-06-10T06:34:09;16.50;99.90
21481;DHT22;10902;48.158;8.634;2023-06-10T06:36:53;16.60;99.90
21481;DHT22;10902;48.158;8.634;2023-06-10T06:39:38;16.80;99.90
21481;DHT22;10902;48.158;8.634;2023-06-10T06:42:22;16.90;99.90
21481;DHT22;10902;48.158;8.634;2023-06-10T06:45:06;17.00;99.90
21481;DHT22;10902;48.158;8.634;2023-06-10T06:47:50;17.10;99.90
21481;DHT22;10902;48.158;8.634;2023-06-10T06:50:35;17.20;99.90
21481;DHT22;10902;48.158;8.634;2023-06-10T06:53:19;17.40;99.90
21481;DHT22;10902;48.158;8.634;2023-06-10T06:56:03;17.50;99.90
21481;DHT22;10902;48.158;8.634;2023-06-10T06:58:47;17.50;99.90
21481;DHT22;10902;48.158;8.634;2023-06-10T07:01:33;17.50;99.90
21481;DHT22;10902;48.158;8.634;2023-06-10T07:04:18;17.60;99.90
21481;DHT22;10902;48.158;8.634;2023-06-10T07:07:07;17.70;99.90
21481;DHT22;10902;48.158;8.634;2023-06-10T07:09:52;18.00;99.90
21481;DHT22;10902;48.158;8.634;2023-06-10T07:12:36;18.10;99.90
21481;DHT22;10902;48.158;8.634;2023-06-10T07:15:21;18.10;99.90
21481;DHT22;10902;48.158;8.634;2023-06-10T07:18:05;18.20;99.90
21481;DHT22;10902;48.158;8.634;2023-06-10T07:20:49;18.10;99.90
21481;DHT22;10902;48.158;8.634;2023-06-10T07:23:33;18.20;99.90
21481;DHT22;10902;48.158;8.634;2023-06-10T07:26:17;18.40;99.90
21481;DHT22;10902;48.158;8.634;2023-06-10T07:29:01;18.60;99.90
21481;DHT22;10902;48.158;8.634;2023-06-10T07:31:45;18.70;99.90
21481;DHT22;10902;48.158;8.634;2023-06-10T07:34:29;18.80;99.90
21481;DHT22;10902;48.158;8.634;2023-06-10T07:37:13;18.90;99.90
21481;DHT22;10902;48.158;8.634;2023-06-10T07:39:58;19.00;99.90
21481;DHT22;10902;48.158;8.634;2023-06-10T07:42:42;19.00;99.90
21481;DHT22;10902;48.158;8.634;2023-06-10T07:45:27;19.00;99.90
21481;DHT22;10902;48.158;8.634;2023-06-10T07:48:11;19.30;99.90
21481;DHT22;10902;48.158;8.634;2023-06-10T07:50:55;19.40;99.90
21481;DHT22;10902;48.158;8.634;2023-06-10T07:53:39;19.50;99.90
21481;DHT22;10902;48.158;8.634;2023-06-10T07:56:23;19.50;99.90
21481;DHT22;10902;48.158;8.634;2023-06-10T07:59:09;19.90;99.90
21481;DHT22;10902;48.158;8.634;2023-06-10T08:01:53;20.00;99.90
21481;DHT22;10902;48.158;8.634;2023-06-10T08:04:37;20.20;99.90
21481;DHT22;10902;48.158;8.634;2023-06-10T08:07:21;20.30;99.90
21481;DHT22;10902;48.158;8.634;2023-06-10T08:10:06;20.50;99.90
21481;DHT22;10902;48.158;8.634;2023-06-10T08:12:51;20.70;99.90
21481;DHT22;10902;48.158;8.634;2023-06-10T08:15:35;20.80;99.90
21481;DHT22;10902;48.158;8.634;2023-06-10T08:18:19;20.90;99.90
21481;DHT22;10902;48.158;8.634;2023-06-10T08:21:03;21.00;99.90
21481;DHT22;10902;48.158;8.634;2023-06-10T08:23:48;21.00;99.90
21481;DHT22;10902;48.158;8.634;2023-06-10T08:26:32;21.20;99.90
21481;DHT22;10902;48.158;8.634;2023-06-10T08:29:16;21.30;99.90
21481;DHT22;10902;48.158;8.634;2023-06-10T08:32:00;21.20;99.90
21481;DHT22;10902;48.158;8.634;2023-06-10T08:34:44;21.30;99.90
21481;DHT22;10902;48.158;8.634;2023-06-10T08:37:29;21.20;99.90
21481;DHT22;10902;48.158;8.634;2023-06-10T08:40:13;21.20;99.90
21481;DHT22;10902;48.158;8.634;2023-06-10T08:45:49;21.80;99.90
21481;DHT22;10902;48.158;8.634;2023-06-10T08:48:35;21.90;99.90
21481;DHT22;10902;48.158;8.634;2023-06-10T08:51:23;21.90;99.90
21481;DHT22;10902;48.158;8.634;2023-06-10T08:54:19;22.40;99.90
21481;DHT22;10902;48.158;8.634;2023-06-10T08:57:05;22.70;99.90
21481;DHT22;10902;48.158;8.634;2023-06-10T08:59:50;23.20;99.90
21481;DHT22;10902;48.158;8.634;2023-06-10T09:02:36;23.30;99.90
21481;DHT22;10902;48.158;8.634;2023-06-10T09:05:20;23.30;99.90
21481;DHT22;10902;48.158;8.634;2023-06-10T09:08:06;23.00;99.90
21481;DHT22;10902;48.158;8.634;2023-06-10T09:10:51;22.70;99.90
21481;DHT22;10902;48.158;8.634;2023-06-10T09:13:35;22.50;99.90
21481;DHT22;10902;48.158;8.634;2023-06-10T09:16:19;22.50;99.90
21481;DHT22;10902;48.158;8.634;2023-06-10T09:19:07;22.60;99.90
21481;DHT22;10902;48.158;8.634;2023-06-10T09:21:54;22.80;99.90
21481;DHT22;10902;48.158;8.634;2023-06-10T09:24:39;23.10;99.90
21481;DHT22;10902;48.158;8.634;2023-06-10T09:27:24;23.50;99.90
21481;DHT22;10902;48.158;8.634;2023-06-10T09:30:08;24.90;99.90
21481;DHT22;10902;48.158;8.634;2023-06-10T09:32:57;25.80;99.90
21481;DHT22;10902;48.158;8.634;2023-06-10T09:35:49;26.30;99.90
21481;DHT22;10902;48.158;8.634;2023-06-10T09:38:34;27.00;99.90
21481;DHT22;10902;48.158;8.634;2023-06-10T09:41:18;26.90;99.90
21481;DHT22;10902;48.158;8.634;2023-06-10T09:44:16;26.50;99.90
21481;DHT22;10902;48.158;8.634;2023-06-10T09:47:00;26.20;99.90
21481;DHT22;10902;48.158;8.634;2023-06-10T09:49:44;26.30;99.90
21481;DHT22;10902;48.158;8.634;2023-06-10T09:52:29;25.90;99.90
21481;DHT22;10902;48.158;8.634;2023-06-10T09:55:14;26.40;99.90
21481;DHT22;10902;48.158;8.634;2023-06-10T09:57:59;26.80;99.90
21481;DHT22;10902;48.158;8.634;2023-06-10T10:00:43;27.20;99.90
21481;DHT22;10902;48.158;8.634;2023-06-10T10:03:27;28.00;99.90
21481;DHT22;10902;48.158;8.634;2023-06-10T10:06:12;28.90;99.90
21481;DHT22;10902;48.158;8.634;2023-06-10T10:08:57;29.10;99.90
21481;DHT22;10902;48.158;8.634;2023-06-10T10:11:41;28.40;99.90
21481;DHT22;10902;48.158;8.634;2023-06-10T10:14:28;28.50;99.90
21481;DHT22;10902;48.158;8.634;2023-06-10T10:17:15;29.00;99.90
21481;DHT22;10902;48.158;8.634;2023-06-10T10:20:04;29.20;99.90
21481;DHT22;10902;48.158;8.634;2023-06-10T10:22:50;28.40;99.90
21481;DHT22;10902;48.158;8.634;2023-06-10T10:25:39;28.10;99.90
21481;DHT22;10902;48.158;8.634;2023-06-10T10:28:26;28.50;99.90
21481;DHT22;10902;48.158;8.634;2023-06-10T10:31:16;28.30;99.90
21481;DHT22;10902;48.158;8.634;2023-06-10T10:34:06;28.10;99.90
21481;DHT22;10902;48.158;8.634;2023-06-10T10:36:51;27.60;99.90
21481;DHT22;10902;48.158;8.634;2023-06-10T10:39:36;27.80;99.90
21481;DHT22;10902;48.158;8.634;2023-06-10T10:42:20;27.40;99.90
21481;DHT22;10902;48.158;8.634;2023-06-10T10:45:06;27.50;99.90
21481;DHT22;10902;48.158;8.634;2023-06-10T10:47:53;27.50;99.90
21481;DHT22;10902;48.158;8.634;2023-06-10T10:50:39;28.00;99.90
21481;DHT22;10902;48.158;8.634;2023-06-10T10:53:24;28.60;99.90
21481;DHT22;10902;48.158;8.634;2023-06-10T10:56:16;28.20;99.90
21481;DHT22;10902;48.158;8.634;2023-06-10T10:59:06;27.60;99.90
21481;DHT22;10902;48.158;8.634;2023-06-10T11:01:51;27.40;99.90
21481;DHT22;10902;48.158;8.634;2023-06-10T11:04:36;27.20;99.90
21481;DHT22;10902;48.158;8.634;2023-06-10T11:07:20;26.80;99.90
21481;DHT22;10902;48.158;8.634;2023-06-10T11:10:10;26.50;99.90
21481;DHT22;10902;48.158;8.634;2023-06-10T11:12:55;26.80;99.90
21481;DHT22;10902;48.158;8.634;2023-06-10T11:15:48;26.80;99.90
21481;DHT22;10902;48.158;8.634;2023-06-10T11:18:38;26.60;99.90
21481;DHT22;10902;48.158;8.634;2023-06-10T11:21:26;26.60;99.90
21481;DHT22;10902;48.158;8.634;2023-06-10T11:24:13;26.50;99.90
21481;DHT22;10902;48.158;8.634;2023-06-10T11:27:20;26.20;99.90
21481;DHT22;10902;48.158;8.634;2023-06-10T11:32:51;27.70;99.90
21481;DHT22;10902;48.158;8.634;2023-06-10T11:35:36;27.60;99.90
21481;DHT22;10902;48.158;8.634;2023-06-10T11:38:21;27.80;99.90
21481;DHT22;10902;48.158;8.634;2023-06-10T11:41:05;29.20;99.90
21481;DHT22;10902;48.158;8.634;2023-06-10T11:43:49;30.30;99.90
21481;DHT22;10902;48.158;8.634;2023-06-10T11:46:35;31.70;99.90
21481;DHT22;10902;48.158;8.634;2023-06-10T11:49:20;32.60;99.90
21481;DHT22;10902;48.158;8.634;2023-06-10T11:52:05;31.40;99.90
21481;DHT22;10902;48.158;8.634;2023-06-10T11:54:55;30.20;99.90
21481;DHT22;10902;48.158;8.634;2023-06-10T11:57:40;28.70;99.90
21481;DHT22;10902;48.158;8.634;2023-06-10T12:00:24;29.60;99.90
21481;DHT22;10902;48.158;8.634;2023-06-10T12:03:08;30.90;99.90
21481;DHT22;10902;48.158;8.634;2023-06-10T12:06:04;30.90;99.90
21481;DHT22;10902;48.158;8.634;2023-06-10T12:08:49;29.40;99.90
21481;DHT22;10902;48.158;8.634;2023-06-10T12:11:33;28.80;99.90
21481;DHT22;10902;48.158;8.634;2023-06-10T12:14:49;29.50;99.90
21481;DHT22;10902;48.158;8.634;2023-06-10T12:17:37;30.20;99.90
21481;DHT22;10902;48.158;8.634;2023-06-10T12:20:27;30.40;99.90
21481;DHT22;10902;48.158;8.634;2023-06-10T12:23:16;29.10;99.90
21481;DHT22;10902;48.158;8.634;2023-06-10T12:26:01;28.30;99.90
21481;DHT22;10902;48.158;8.634;2023-06-10T12:28:50;27.90;99.90
21481;DHT22;10902;48.158;8.634;2023-06-10T12:32:01;28.60;99.90
21481;DHT22;10902;48.158;8.634;2023-06-10T12:34:46;29.90;99.90
21481;DHT22;10902;48.158;8.634;2023-06-10T12:37:31;30.90;99.90
21481;DHT22;10902;48.158;8.634;2023-06-10T12:40:17;31.50;99.90
21481;DHT22;10902;48.158;8.634;2023-06-10T12:43:02;30.80;99.90
21481;DHT22;10902;48.158;8.634;2023-06-10T12:45:47;29.60;99.90
21481;DHT22;10902;48.158;8.634;2023-06-10T12:48:31;29.30;99.90
21481;DHT22;10902;48.158;8.634;2023-06-10T12:51:15;28.90;99.90
21481;DHT22;10902;48.158;8.634;2023-06-10T12:54:00;29.10;99.90
21481;DHT22;10902;48.158;8.634;2023-06-10T12:56:45;29.50;99.90
21481;DHT22;10902;48.158;8.634;2023-06-10T12:59:30;30.40;99.90
21481;DHT22;10902;48.158;8.634;2023-06-10T13:02:16;30.40;99.90
21481;DHT22;10902;48.158;8.634;2023-06-10T13:05:00;30.00;99.90
21481;DHT22;10902;48.158;8.634;2023-06-10T13:07:47;29.20;99.90
21481;DHT22;10902;48.158;8.634;2023-06-10T13:10:32;28.80;99.90
21481;DHT22;10902;48.158;8.634;2023-06-10T13:13:16;28.20;99.90
21481;DHT22;10902;48.158;8.634;2023-06-10T13:16:00;28.20;99.90
21481;DHT22;10902;48.158;8.634;2023-06-10T13:18:46;28.40;99.90
21481;DHT22;10902;48.158;8.634;2023-06-10T13:21:29;28.70;99.90
21481;DHT22;10902;48.158;8.634;2023-06-10T13:24:14;29.20;99.90
21481;DHT22;10902;48.158;8.634;2023-06-10T13:26:58;31.70;99.90
21481;DHT22;10902;48.158;8.634;2023-06-10T13:29:43;33.90;99.90
21481;DHT22;10902;48.158;8.634;2023-06-10T13:32:27;32.80;99.90
21481;DHT22;10902;48.158;8.634;2023-06-10T13:35:11;31.70;99.90
21481;DHT22;10902;48.158;8.634;2023-06-10T13:37:55;30.90;99.90
21481;DHT22;10902;48.158;8.634;2023-06-10T13:40:39;30.40;99.90
21481;DHT22;10902;48.158;8.634;2023-06-10T13:43:23;30.40;99.90
21481;DHT22;10902;48.158;8.634;2023-06-10T13:46:08;31.50;99.90
21481;DHT22;10902;48.158;8.634;2023-06-10T13:48:53;32.10;99.90
21481;DHT22;10902;48.158;8.634;2023-06-10T13:51:37;32.30;99.90
21481;DHT22;10902;48.158;8.634;2023-06-10T13:54:21;32.20;99.90
21481;DHT22;10902;48.158;8.634;2023-06-10T13:57:05;33.30;99.90
21481;DHT22;10902;48.158;8.634;2023-06-10T13:59:50;34.20;99.90
21481;DHT22;10902;48.158;8.634;2023-06-10T14:02:34;34.70;99.90
21481;DHT22;10902;48.158;8.634;2023-06-10T14:05:18;35.90;99.90
21481;DHT22;10902;48.158;8.634;2023-06-10T14:08:03;35.90;99.90
21481;DHT22;10902;48.158;8.634;2023-06-10T14:10:47;34.50;99.90
21481;DHT22;10902;48.158;8.634;2023-06-10T14:13:32;34.50;99.90
21481;DHT22;10902;48.158;8.634;2023-06-10T14:16:17;34.30;99.90
21481;DHT22;10902;48.158;8.634;2023-06-10T14:19:02;32.80;99.90
21481;DHT22;10902;48.158;8.634;2023-06-10T14:21:46;32.90;99.90
21481;DHT22;10902;48.158;8.634;2023-06-10T14:24:31;32.50;99.90
21481;DHT22;10902;48.158;8.634;2023-06-10T14:27:15;32.40;99.90
21481;DHT22;10902;48.158;8.634;2023-06-10T14:29:59;33.70;99.90
21481;DHT22;10902;48.158;8.634;2023-06-10T14:32:44;33.70;99.90
21481;DHT22;10902;48.158;8.634;2023-06-10T14:35:28;34.90;99.90
21481;DHT22;10902;48.158;8.634;2023-06-10T14:38:12;34.20;99.90
21481;DHT22;10902;48.158;8.634;2023-06-10T14:40:56;33.70;99.90
21481;DHT22;10902;48.158;8.634;2023-06-10T14:43:41;33.40;99.90
21481;DHT22;10902;48.158;8.634;2023-06-10T14:46:25;34.40;99.90
21481;DHT22;10902;48.158;8.634;2023-06-10T14:49:09;35.20;99.90
21481;DHT22;10902;48.158;8.634;2023-06-10T14:51:53;32.90;99.90
21481;DHT22;10902;48.158;8.634;2023-06-10T14:54:37;33.50;99.90
21481;DHT22;10902;48.158;8.634;2023-06-10T14:57:21;33.60;99.90
21481;DHT22;10902;48.158;8.634;2023-06-10T15:00:06;33.50;99.70
21481;DHT22;10902;48.158;8.634;2023-06-10T15:02:51;33.80;99.90
21481;DHT22;10902;48.158;8.634;2023-06-10T15:05:35;34.80;99.90
21481;DHT22;10902;48.158;8.634;2023-06-10T15:08:21;34.50;99.50
21481;DHT22;10902;48.158;8.634;2023-06-10T15:11:05;34.40;99.90
21481;DHT22;10902;48.158;8.634;2023-06-10T15:13:50;34.80;99.30
21481;DHT22;10902;48.158;8.634;2023-06-10T15:16:34;34.20;99.40
21481;DHT22;10902;48.158;8.634;2023-06-10T15:19:18;33.40;99.50
21481;DHT22;10902;48.158;8.634;2023-06-10T15:22:03;33.50;99.40
21481;DHT22;10902;48.158;8.634;2023-06-10T15:24:48;34.10;99.20
21481;DHT22;10902;48.158;8.634;2023-06-10T15:27:32;34.20;98.60
21481;DHT22;10902;48.158;8.634;2023-06-10T15:30:16;33.90;98.40
21481;DHT22;10902;48.158;8.634;2023-06-10T15:33:00;34.40;98.10
21481;DHT22;10902;48.158;8.634;2023-06-10T15:35:44;34.00;97.70
21481;DHT22;10902;48.158;8.634;2023-06-10T15:38:29;34.40;98.10
21481;DHT22;10902;48.158;8.634;2023-06-10T15:41:13;35.20;97.20
21481;DHT22;10902;48.158;8.634;2023-06-10T15:43:58;34.30;97.50
21481;DHT22;10902;48.158;8.634;2023-06-10T15:46:45;33.40;97.40
21481;DHT22;10902;48.158;8.634;2023-06-10T15:49:30;34.10;97.30
21481;DHT22;10902;48.158;8.634;2023-06-10T15:52:14;33.70;97.40
21481;DHT22;10902;48.158;8.634;2023-06-10T15:54:58;34.60;96.90
21481;DHT22;10902;48.158;8.634;2023-06-10T15:57:42;35.60;96.90
21481;DHT22;10902;48.158;8.634;2023-06-10T16:00:26;35.30;95.20
21481;DHT22;10902;48.158;8.634;2023-06-10T16:03:11;35.00;95.10
21481;DHT22;10902;48.158;8.634;2023-06-10T16:05:55;36.00;95.00
21481;DHT22;10902;48.158;8.634;2023-06-10T16:08:39;34.30;95.50
21481;DHT22;10902;48.158;8.634;2023-06-10T16:11:24;34.80;96.00
21481;DHT22;10902;48.158;8.634;2023-06-10T16:14:09;34.60;95.60
21481;DHT22;10902;48.158;8.634;2023-06-10T16:16:53;35.00;95.40
21481;DHT22;10902;48.158;8.634;2023-06-10T16:19:41;34.20;95.90
21481;DHT22;10902;48.158;8.634;2023-06-10T16:22:25;34.50;96.70
21481;DHT22;10902;48.158;8.634;2023-06-10T16:25:09;33.90;96.90
21481;DHT22;10902;48.158;8.634;2023-06-10T16:27:53;32.60;97.00
21481;DHT22;10902;48.158;8.634;2023-06-10T16:30:37;31.90;97.30
21481;DHT22;10902;48.158;8.634;2023-06-10T16:33:21;31.20;98.30
21481;DHT22;10902;48.158;8.634;2023-06-10T16:36:06;32.00;98.00
21481;DHT22;10902;48.158;8.634;2023-06-10T16:38:50;31.70;97.70
21481;DHT22;10902;48.158;8.634;2023-06-10T16:41:34;31.20;97.40
21481;DHT22;10902;48.158;8.634;2023-06-10T16:44:19;29.50;98.20
21481;DHT22;10902;48.158;8.634;2023-06-10T16:47:03;28.40;99.30
21481;DHT22;10902;48.158;8.634;2023-06-10T16:49:48;28.20;99.80
21481;DHT22;10902;48.158;8.634;2023-06-10T16:52:32;28.90;99.90
21481;DHT22;10902;48.158;8.634;2023-06-10T16:55:16;30.50;98.90
21481;DHT22;10902;48.158;8.634;2023-06-10T16:58:00;31.70;98.40
21481;DHT22;10902;48.158;8.634;2023-06-10T17:00:44;32.60;98.20
21481;DHT22;10902;48.158;8.634;2023-06-10T17:03:29;32.80;98.30
21481;DHT22;10902;48.158;8.634;2023-06-10T17:06:14;31.80;98.70
21481;DHT22;10902;48.158;8.634;2023-06-10T17:08:58;30.70;99.40
21481;DHT22;10902;48.158;8.634;2023-06-10T17:11:43;31.00;99.50
21481;DHT22;10902;48.158;8.634;2023-06-10T17:14:27;30.70;99.60
21481;DHT22;10902;48.158;8.634;2023-06-10T17:17:13;29.70;99.90
21481;DHT22;10902;48.158;8.634;2023-06-10T17:19:57;30.60;99.70
21481;DHT22;10902;48.158;8.634;2023-06-10T17:22:41;31.20;99.30
21481;DHT22;10902;48.158;8.634;2023-06-10T17:25:25;31.60;98.90
21481;DHT22;10902;48.158;8.634;2023-06-10T17:28:09;31.20;99.10
21481;DHT22;10902;48.158;8.634;2023-06-10T17:30:54;30.50;99.90
21481;DHT22;10902;48.158;8.634;2023-06-10T17:33:38;30.30;99.90
21481;DHT22;10902;48.158;8.634;2023-06-10T17:36:22;30.50;99.90